Time;durP1;ratioP1;P1;durP2;ratioP2;P2;SDS_P1;SDS_P2;PMS_P1;PMS_P2;Temp;Humidity;BMP_temperature;BMP_pressure;BME280_temperature;BME280_humidity;BME280_pressure;Samples;Min_cycle;Max_cycle;Signal;HPM_P1;HPM_P2
2021/12/05 00:23:38;;;;;;;24.17;14.90;;;;;;;0.12;100.00;99501.52;1525492;94;21105;-72
2021/12/05 00:26:02;;;;;;;25.20;14.10;;;;;;;0.10;100.00;99496.31;1519451;94;21632;-72
2021/12/05 00:31:42;;;;;;;18.93;11.30;;;;;;;0.09;100.00;99481.80;1516599;95;21191;-73
2021/12/05 00:45:17;;;;;;;20.97;11.00;;;;;;;0.06;100.00;99484.72;1515323;94;21060;-73
2021/12/05 00:53:11;;;;;;;19.97;11.47;;;;;;;0.05;100.00;99477.69;1515268;94;21108;-74
2021/12/05 00:58:04;;;;;;;20.00;11.10;;;;;;;0.07;100.00;99480.62;1537714;92;21527;-73
2021/12/05 01:16:27;;;;;;;18.57;10.27;;;;;;;0.26;100.00;99472.53;1587107;90;21082;-73
2021/12/05 01:18:55;;;;;;;20.17;11.17;;;;;;;0.29;100.00;99473.14;1613873;89;21069;-74
2021/12/05 01:21:23;;;;;;;17.33;10.13;;;;;;;0.32;100.00;99461.41;1593099;90;21046;-73
2021/12/05 01:24:01;;;;;;;18.90;10.40;;;;;;;0.32;100.00;99461.41;1614143;89;21110;-73
2021/12/05 01:31:44;;;;;;;22.20;12.67;;;;;;;0.33;100.00;99455.97;1560627;92;21117;-72
2021/12/05 01:49:48;;;;;;;19.98;11.95;;;;;;;0.39;100.00;99446.69;1550337;93;21494;-73
2021/12/05 01:55:06;;;;;;;21.63;11.87;;;;;;;0.40;100.00;99455.02;1550206;92;21072;-73
2021/12/05 02:11:11;;;;;;;21.63;11.80;;;;;;;0.37;100.00;99444.14;1549867;93;21612;-73
2021/12/05 02:37:30;;;;;;;23.53;12.73;;;;;;;0.17;100.00;99434.20;1696747;84;21109;-73
2021/12/05 02:42:14;;;;;;;22.20;12.13;;;;;;;0.21;100.00;99430.83;1696563;85;21077;-74
2021/12/05 02:44:42;;;;;;;19.60;10.80;;;;;;;0.22;100.00;99425.88;1696582;85;21507;-74
2021/12/05 02:47:20;;;;;;;18.17;10.17;;;;;;;0.24;100.00;99431.92;1696744;84;21013;-73
2021/12/05 02:49:49;;;;;;;17.17;9.30;;;;;;;0.26;100.00;99429.49;1696453;85;21543;-75
2021/12/05 02:52:26;;;;;;;17.73;9.63;;;;;;;0.27;100.00;99431.20;1696582;84;21037;-73
2021/12/05 02:54:53;;;;;;;;;;;;;;;0.28;100.00;99439.52;1699314;85;21025;-72
2021/12/05 02:57:34;;;;;;;18.70;10.43;;;;;;;0.27;100.00;99429.87;1696729;85;20107;-73
2021/12/05 02:59:54;;;;;;;19.60;10.77;;;;;;;0.26;100.00;99433.98;1691719;85;20993;-72
2021/12/05 03:02:26;;;;;;;19.20;10.23;;;;;;;0.26;100.00;99440.62;1691187;85;21013;-73
2021/12/05 03:04:52;;;;;;;17.93;9.80;;;;;;;0.25;100.00;99449.09;1691615;85;21046;-72
2021/12/05 03:07:25;;;;;;;19.57;10.57;;;;;;;0.26;100.00;99453.42;1696892;84;21029;-73
2021/12/05 03:09:47;;;;;;;18.53;9.57;;;;;;;0.27;100.00;99448.98;1690885;85;21024;-72
2021/12/05 03:12:18;;;;;;;19.70;10.13;;;;;;;0.26;100.00;99445.45;1696977;85;21041;-74
2021/12/05 03:14:45;;;;;;;16.27;9.40;;;;;;;0.24;100.00;99450.54;1696660;85;21033;-74
2021/12/05 03:17:14;;;;;;;17.47;9.63;;;;;;;0.21;100.00;99450.28;1696670;84;21037;-72
2021/12/05 03:19:42;;;;;;;17.50;9.53;;;;;;;0.20;100.00;99453.92;1685597;85;21086;-73
2021/12/05 03:22:10;;;;;;;18.10;9.73;;;;;;;0.19;100.00;99453.55;1654452;86;21057;-73
2021/12/05 03:24:39;;;;;;;15.77;8.87;;;;;;;0.18;100.00;99451.38;1654719;86;21157;-73
2021/12/05 03:27:07;;;;;;;17.03;8.80;;;;;;;0.19;100.00;99449.55;1652219;86;21096;-73
2021/12/05 03:29:35;;;;;;;16.80;8.57;;;;;;;0.20;100.00;99447.27;1649831;87;21555;-73
2021/12/05 03:32:03;;;;;;;17.03;8.80;;;;;;;0.20;100.00;99452.59;1650019;87;21029;-73
2021/12/05 03:34:30;;;;;;;17.90;9.70;;;;;;;0.22;100.00;99455.13;1687408;85;21009;-73
2021/12/05 03:36:59;;;;;;;18.33;9.90;;;;;;;0.25;100.00;99460.19;1692279;84;21014;-73
2021/12/05 03:39:27;;;;;;;16.13;8.73;;;;;;;0.26;100.00;99461.89;1691953;85;21073;-72
2021/12/05 03:41:55;;;;;;;15.27;8.70;;;;;;;0.26;100.00;99456.58;1692003;85;21014;-72
2021/12/05 03:44:26;;;;;;;17.87;9.20;;;;;;;0.25;100.00;99453.55;1691946;85;21006;-73
2021/12/05 03:46:56;;;;;;;17.35;8.70;;;;;;;0.26;100.00;99456.58;1692117;85;21554;-72
2021/12/05 03:49:23;;;;;;;15.87;9.03;;;;;;;0.25;100.00;99450.42;1692493;85;21535;-73
2021/12/05 03:51:59;;;;;;;17.67;9.43;;;;;;;0.27;100.00;99450.31;1692165;85;21033;-72
2021/12/05 03:54:26;;;;;;;16.97;9.17;;;;;;;0.25;100.00;99453.08;1692192;85;21025;-73
2021/12/05 03:56:54;;;;;;;16.63;9.60;;;;;;;0.25;100.00;99458.86;1692077;85;21467;-71
2021/12/05 03:59:27;;;;;;;18.37;10.27;;;;;;;0.24;100.00;99463.83;1692147;85;21625;-72
2021/12/05 04:01:52;;;;;;;18.00;9.93;;;;;;;0.24;100.00;99466.00;1689583;85;21030;-73
2021/12/05 04:04:20;;;;;;;18.77;10.20;;;;;;;0.23;100.00;99474.96;1673988;85;21001;-72
2021/12/05 04:06:46;;;;;;;17.83;9.40;;;;;;;0.21;100.00;99478.20;1673381;85;21049;-72
2021/12/05 04:09:16;;;;;;;16.60;8.87;;;;;;;0.20;100.00;99477.02;1673338;85;21029;-72
2021/12/05 04:11:55;;;;;;;19.50;9.50;;;;;;;0.17;100.00;99482.07;1673357;85;21025;-72
2021/12/05 04:14:17;;;;;;;38.80;16.67;;;;;;;0.16;100.00;99483.02;1672135;86;21033;-73
2021/12/05 04:16:46;;;;;;;65.20;27.23;;;;;;;0.14;100.00;99494.27;1673306;85;21022;-72
2021/12/05 04:19:13;;;;;;;28.70;13.90;;;;;;;0.12;100.00;99502.84;1671758;85;21048;-72
2021/12/05 04:21:40;;;;;;;20.13;10.17;;;;;;;0.10;100.00;99502.95;1618003;89;21040;-72
2021/12/05 04:24:10;;;;;;;19.40;9.60;;;;;;;0.12;100.00;99502.34;1610768;88;21065;-72
2021/12/05 04:26:37;;;;;;;18.53;9.87;;;;;;;0.12;100.00;99508.16;1621508;87;21128;-73
2021/12/05 04:29:04;;;;;;;22.07;11.57;;;;;;;0.10;100.00;99506.94;1638746;88;21515;-73
2021/12/05 04:31:32;;;;;;;19.30;9.97;;;;;;;0.10;100.00;99499.45;1638515;88;21101;-72
2021/12/05 04:33:59;;;;;;;19.07;9.87;;;;;;;0.06;100.00;99498.84;1631574;88;20995;-71
2021/12/05 04:36:26;;;;;;;16.33;8.57;;;;;;;0.07;100.00;99503.67;1692639;85;21061;-74
2021/12/05 04:38:53;;;;;;;15.73;8.47;;;;;;;0.08;100.00;99512.86;1692622;85;21026;-75
2021/12/05 04:41:20;;;;;;;15.50;8.90;;;;;;;0.08;100.00;99513.35;1692487;85;21049;-72
2021/12/05 04:43:50;;;;;;;15.40;8.70;;;;;;;0.04;100.00;99519.39;1692677;85;21017;-72
2021/12/05 04:46:22;;;;;;;15.73;9.00;;;;;;;0.01;100.00;99521.44;1692883;85;20993;-73
2021/12/05 04:48:51;;;;;;;15.20;8.63;;;;;;;-0.02;100.00;99519.38;1692905;85;20994;-73
2021/12/05 04:51:22;;;;;;;13.67;8.20;;;;;;;-0.02;100.00;99523.36;1692640;85;21045;-71
2021/12/05 04:53:52;;;;;;;15.13;8.50;;;;;;;-0.04;100.00;99533.73;1692654;85;21065;-73
2021/12/05 04:56:19;;;;;;;14.70;8.07;;;;;;;-0.07;100.00;99541.92;1692638;85;21025;-73
2021/12/05 04:58:46;;;;;;;16.83;8.97;;;;;;;-0.10;100.00;99536.87;1692277;85;21037;-72
2021/12/05 05:01:15;;;;;;;17.07;9.03;;;;;;;-0.10;100.00;99540.36;1689219;85;21053;-73
2021/12/05 05:03:42;;;;;;;16.83;9.23;;;;;;;-0.11;100.00;99541.80;1692340;85;21045;-73
2021/12/05 05:06:16;;;;;;;17.33;9.30;;;;;;;-0.11;100.00;99549.77;1692404;85;21070;-73
2021/12/05 05:08:46;;;;;;;16.10;8.43;;;;;;;-0.10;100.00;99564.28;1692640;85;21024;-72
2021/12/05 05:11:14;;;;;;;15.97;9.10;;;;;;;-0.10;100.00;99568.27;1692469;85;21102;-73
2021/12/05 05:13:41;;;;;;;14.53;8.40;;;;;;;-0.09;100.00;99574.42;1692574;85;21025;-72
2021/12/05 05:16:09;;;;;;;15.20;8.30;;;;;;;-0.07;100.00;99580.47;1692613;85;21014;-72
2021/12/05 05:18:47;;;;;;;15.17;8.70;;;;;;;-0.06;100.00;99580.36;1692541;85;21001;-73
2021/12/05 05:24:05;;;;;;;17.03;9.67;;;;;;;-0.07;100.00;99585.32;1664670;86;21015;-72
2021/12/05 05:44:43;;;;;;;20.83;11.53;;;;;;;-0.13;100.00;99613.67;1626686;88;21081;-74
2021/12/05 05:47:15;;;;;;;18.90;11.27;;;;;;;-0.12;100.00;99611.88;1623348;88;21618;-73
2021/12/05 05:52:12;;;;;;;20.72;12.23;;;;;;;-0.14;100.00;99608.46;1626381;88;21088;-73
2021/12/05 05:54:40;;;;;;;21.87;11.77;;;;;;;-0.20;100.00;99600.47;1626331;88;21570;-73
2021/12/05 05:57:16;;;;;;;19.73;11.23;;;;;;;-0.26;100.00;99599.61;1626358;88;21081;-72
2021/12/05 06:04:37;;;;;;;17.63;11.43;;;;;;;-0.41;100.00;99594.92;1542483;93;21675;-71
2021/12/05 06:07:04;;;;;;;18.20;11.47;;;;;;;-0.48;100.00;99603.83;1571601;90;21101;-72
2021/12/05 06:09:31;;;;;;;19.67;12.00;;;;;;;-0.51;100.00;99612.02;1547983;93;21086;-71
2021/12/05 06:11:58;;;;;;;19.77;11.73;;;;;;;-0.55;100.00;99597.23;1547961;93;21103;-72
2021/12/05 06:14:27;;;;;;;21.87;12.77;;;;;;;-0.55;100.00;99605.20;1523566;94;21051;-72
2021/12/05 06:16:53;;;;;;;20.17;12.13;;;;;;;-0.57;100.00;99609.79;1547908;93;21101;-72
2021/12/05 06:19:20;;;;;;;23.10;14.70;;;;;;;-0.56;100.00;99607.52;1520122;94;21513;-71
2021/12/05 06:21:47;;;;;;;23.30;13.23;;;;;;;-0.58;100.00;99607.63;1545004;93;21115;-72
2021/12/05 06:24:14;;;;;;;23.50;13.93;;;;;;;-0.60;100.00;99596.27;1519058;94;21615;-71
2021/12/05 06:26:42;;;;;;;24.97;13.53;;;;;;;-0.63;100.00;99592.98;1544661;93;21111;-73
2021/12/05 06:37:31;;;;;;;21.97;12.73;;;;;;;-0.89;100.00;99586.39;1535050;93;21049;-73
2021/12/05 06:39:49;;;;;;;20.83;12.57;;;;;;;-0.99;100.00;99576.92;1538175;92;21089;-71
2021/12/05 06:42:45;;;;;;;21.73;13.33;;;;;;;-1.06;100.00;99584.95;1538171;92;21065;-72
2021/12/05 06:47:36;;;;;;;22.10;13.67;;;;;;;-1.16;100.00;99573.28;1535336;93;21971;-71
2021/12/05 06:50:04;;;;;;;23.17;14.17;;;;;;;-1.16;100.00;99582.08;1534960;93;21045;-72
2021/12/05 06:52:32;;;;;;;24.53;14.13;;;;;;;-1.19;100.00;99577.01;1534938;93;21603;-73
2021/12/05 06:54:58;;;;;;;24.37;13.40;;;;;;;-1.19;100.00;99582.31;1535349;93;21149;-72
2021/12/05 06:57:25;;;;;;;23.03;13.37;;;;;;;-1.18;100.00;99574.70;1535256;93;21050;-71
2021/12/05 06:59:52;;;;;;;21.67;12.60;;;;;;;-1.16;100.00;99570.62;1603563;89;21532;-72
2021/12/05 07:02:19;;;;;;;22.03;12.93;;;;;;;-1.20;100.00;99573.97;1607949;89;21081;-71
2021/12/05 07:07:24;;;;;;;21.67;13.07;;;;;;;-1.23;100.00;99574.17;1584518;91;21118;-72
2021/12/05 07:09:50;;;;;;;24.37;14.07;;;;;;;-1.29;100.00;99569.31;1573916;91;21054;-72
2021/12/05 07:12:52;;;;;;;28.83;16.23;;;;;;;-1.27;100.00;99573.20;1573491;91;21078;-71
2021/12/05 07:20:13;;;;;;;55.28;29.02;;;;;;;-1.36;100.00;99584.80;1508158;95;21077;-72
2021/12/05 07:22:38;;;;;;;57.87;26.47;;;;;;;-1.31;100.00;99588.93;1495479;95;21097;-73
2021/12/05 07:25:10;;;;;;;39.27;22.67;;;;;;;-1.25;100.00;99594.67;1495125;95;21142;-73
2021/12/05 07:43:57;;;;;;;21.17;12.30;;;;;;;-1.22;100.00;99614.36;1531195;91;21055;-72
2021/12/05 07:46:23;;;;;;;19.87;11.70;;;;;;;-1.23;100.00;99616.62;1609621;89;21021;-73
2021/12/05 07:48:50;;;;;;;23.90;14.57;;;;;;;-1.24;100.00;99620.25;1609410;89;21082;-72
2021/12/05 07:54:04;;;;;;;22.43;12.97;;;;;;;-1.14;100.00;99637.70;1609302;89;21021;-73
2021/12/05 07:56:45;;;;;;;21.20;12.23;;;;;;;-1.10;100.00;99637.84;1606326;89;21041;-71
2021/12/05 08:18:12;;;;;;;21.87;11.90;;;;;;;-0.96;100.00;99629.80;1663682;86;21054;-72
2021/12/05 08:20:43;;;;;;;21.13;11.57;;;;;;;-0.86;100.00;99634.45;1644998;86;21514;-72
2021/12/05 08:23:12;;;;;;;19.07;10.97;;;;;;;-0.78;100.00;99640.05;1635265;88;21544;-72
2021/12/05 08:25:40;;;;;;;20.47;11.70;;;;;;;-0.71;100.00;99632.02;1635360;88;21511;-72
2021/12/05 08:30:49;;;;;;;19.63;11.63;;;;;;;-0.56;100.00;99627.92;1639963;87;21165;-72
2021/12/05 08:39:14;;;;;;;18.10;10.63;;;;;;;-0.35;100.00;99614.41;1594395;90;21051;-72
2021/12/05 10:03:03;;;;;;;17.90;10.63;;;;;;;-0.07;100.00;99615.02;1571518;91;21686;-76
2021/12/05 10:13:24;;;;;;;21.27;11.20;;;;;;;-0.12;100.00;99635.31;1571642;91;21033;-72
2021/12/05 10:27:16;;;;;;;22.83;12.80;;;;;;;0.03;100.00;99643.95;1513029;92;21052;-73
2021/12/05 10:38:07;;;;;;;22.33;12.87;;;;;;;0.08;100.00;99657.75;1497076;96;21646;-71
2021/12/05 10:40:41;;;;;;;20.67;11.63;;;;;;;0.12;100.00;99659.21;1496733;94;21131;-73
2021/12/05 10:43:20;;;;;;;21.20;11.10;;;;;;;0.14;100.00;99654.66;1497060;96;21090;-71
2021/12/05 10:45:50;;;;;;;19.60;11.10;;;;;;;0.13;100.00;99658.76;1496918;96;21129;-73
2021/12/05 10:48:38;;;;;;;19.53;10.27;;;;;;;0.12;100.00;99663.20;1496984;96;21077;-72
2021/12/05 10:51:27;;;;;;;19.63;10.77;;;;;;;0.16;100.00;99664.70;1410086;101;21132;-72
2021/12/05 10:54:09;;;;;;;112.47;84.07;;;;;;;0.21;100.00;99664.83;1410176;102;21107;-71
2021/12/05 10:56:56;;;;;;;29.03;16.70;;;;;;;0.20;100.00;99661.81;1410133;102;21084;-72
2021/12/05 10:59:26;;;;;;;21.83;11.97;;;;;;;0.23;100.00;99663.77;1393690;99;21130;-72
2021/12/05 11:02:03;;;;;;;19.43;11.33;;;;;;;0.26;100.00;99663.51;1393676;103;21162;-72
2021/12/05 11:04:36;;;;;;;20.53;11.83;;;;;;;0.24;100.00;99661.94;1391319;103;21195;-73
2021/12/05 11:07:18;;;;;;;19.82;13.08;;;;;;;0.18;100.00;99664.58;1393614;103;21158;-72
2021/12/05 11:09:50;;;;;;;22.27;12.40;;;;;;;0.13;100.00;99670.23;1393633;103;21153;-73
2021/12/05 11:12:25;;;;;;;27.00;13.20;;;;;;;0.17;100.00;99671.69;1393702;103;21208;-74
2021/12/05 11:15:02;;;;;;;21.87;12.60;;;;;;;0.24;100.00;99683.22;1393526;103;21240;-72
2021/12/05 11:17:37;;;;;;;19.00;10.73;;;;;;;0.30;100.00;99681.42;1360288;105;21251;-72
2021/12/05 11:20:12;;;;;;;20.77;10.77;;;;;;;0.34;100.00;99682.42;1367906;104;21126;-73
2021/12/05 11:22:44;;;;;;;232.90;36.63;;;;;;;0.33;100.00;99679.38;1381858;103;21145;-73
2021/12/05 11:25:15;;;;;;;25.77;12.53;;;;;;;0.31;100.00;99689.28;1382900;103;21575;-73
2021/12/05 11:27:47;;;;;;;23.03;12.17;;;;;;;0.32;100.00;99691.45;1367807;105;22007;-71
2021/12/05 11:30:18;;;;;;;21.70;11.80;;;;;;;0.28;100.00;99691.33;1406789;102;21151;-72
2021/12/05 11:32:54;;;;;;;20.23;11.20;;;;;;;0.24;100.00;99693.36;1407133;101;21157;-73
2021/12/05 11:35:42;;;;;;;20.13;10.73;;;;;;;0.26;100.00;99690.11;1445266;99;21235;-70
2021/12/05 11:38:26;;;;;;;20.63;11.33;;;;;;;0.31;100.00;99689.77;1445205;97;21197;-71
2021/12/05 11:41:08;;;;;;;19.55;10.60;;;;;;;0.32;100.00;99701.63;1445499;99;21125;-71
2021/12/05 11:43:45;;;;;;;18.77;9.90;;;;;;;0.32;100.00;99706.08;1473349;96;21125;-71
2021/12/05 11:46:34;;;;;;;17.93;9.90;;;;;;;0.32;100.00;99702.96;1469069;96;21106;-73
2021/12/05 11:49:10;;;;;;;20.10;10.30;;;;;;;0.32;100.00;99706.08;1516422;94;21149;-73
2021/12/05 11:51:56;;;;;;;20.80;10.97;;;;;;;0.29;100.00;99703.67;1517934;95;21092;-73
2021/12/05 11:54:30;;;;;;;21.93;11.93;;;;;;;0.25;100.00;99710.16;1529458;93;21150;-74
2021/12/05 11:57:17;;;;;;;19.17;11.00;;;;;;;0.24;100.00;99717.30;1530992;94;21091;-74
2021/12/05 11:59:54;;;;;;;20.03;10.00;;;;;;;0.21;100.00;99720.17;1531077;94;21152;-73
2021/12/05 12:02:36;;;;;;;16.53;9.53;;;;;;;0.17;100.00;99726.69;1491898;96;21101;-74
2021/12/05 12:05:18;;;;;;;19.93;10.90;;;;;;;0.20;100.00;99731.80;1498841;96;21089;-73
2021/12/05 12:08:00;;;;;;;22.10;10.50;;;;;;;0.25;100.00;99724.33;1482693;97;21538;-73
2021/12/05 12:10:49;;;;;;;16.43;9.80;;;;;;;0.30;100.00;99738.59;1455036;99;21107;-73
2021/12/05 12:13:19;;;;;;;16.93;9.43;;;;;;;0.29;100.00;99738.25;1460430;96;21120;-72
2021/12/05 12:15:58;;;;;;;17.43;9.40;;;;;;;0.24;100.00;99747.88;1495543;96;21068;-73
2021/12/05 12:18:27;;;;;;;;;;;;;;;0.24;100.00;99747.04;1500706;95;21060;-74
2021/12/05 12:20:51;;;;;;;15.80;8.93;;;;;;;0.24;100.00;99752.36;1498073;95;20158;-71
2021/12/05 12:23:19;;;;;;;16.60;8.77;;;;;;;0.21;100.00;99754.74;1495455;96;21076;-72
2021/12/05 12:25:49;;;;;;;19.33;9.57;;;;;;;0.19;100.00;99751.35;1495481;96;21160;-73
2021/12/05 12:28:17;;;;;;;16.80;8.87;;;;;;;0.20;100.00;99754.88;1495125;96;21650;-72
2021/12/05 12:30:52;;;;;;;17.80;8.70;;;;;;;0.23;100.00;99751.98;1487785;96;21160;-72
2021/12/05 12:33:25;;;;;;;15.23;8.40;;;;;;;0.26;100.00;99747.77;1486424;96;21110;-73
2021/12/05 12:35:52;;;;;;;12.70;7.80;;;;;;;0.29;100.00;99748.89;1506948;95;21157;-73
2021/12/05 12:38:27;;;;;;;16.90;8.40;;;;;;;0.31;100.00;99748.28;1506795;95;21576;-70
2021/12/05 12:41:17;;;;;;;14.80;8.50;;;;;;;0.29;100.00;99754.20;1506623;95;21112;-73
2021/12/05 12:43:49;;;;;;;18.10;9.73;;;;;;;0.26;100.00;99751.77;1506499;95;21081;-72
2021/12/05 12:46:40;;;;;;;18.33;9.83;;;;;;;0.21;100.00;99752.08;1506999;95;21129;-72
2021/12/05 12:49:22;;;;;;;17.30;8.70;;;;;;;0.18;100.00;99752.33;1549062;93;21081;-73
2021/12/05 12:52:03;;;;;;;14.83;7.60;;;;;;;0.16;100.00;99759.55;1549237;93;21089;-73
2021/12/05 12:54:44;;;;;;;16.17;8.43;;;;;;;0.14;100.00;99773.44;1548721;93;21159;-74
2021/12/05 12:57:27;;;;;;;27.53;15.10;;;;;;;0.15;100.00;99779.98;1534240;94;21542;-73
2021/12/05 13:00:08;;;;;;;39.15;22.37;;;;;;;0.15;100.00;99776.48;1572268;91;21053;-74
2021/12/05 13:11:09;;;;;;;46.87;28.00;;;;;;;0.25;100.00;99766.88;1516010;95;21050;-72
2021/12/05 13:13:39;;;;;;;50.77;31.10;;;;;;;0.24;100.00;99761.17;1515864;95;21575;-72
2021/12/05 13:16:16;;;;;;;52.90;31.90;;;;;;;0.21;100.00;99762.72;1515891;95;21106;-68
2021/12/05 13:18:46;;;;;;;51.90;30.27;;;;;;;0.22;100.00;99760.94;1515795;95;21065;-72
2021/12/05 13:21:31;;;;;;;49.03;28.90;;;;;;;0.21;100.00;99764.54;1495297;95;21538;-72
2021/12/05 13:23:58;;;;;;;48.30;29.10;;;;;;;0.18;100.00;99751.84;1469701;98;21152;-70
2021/12/05 13:29:19;;;;;;;35.50;21.60;;;;;;;0.18;100.00;99765.63;1438617;98;21686;-70
2021/12/05 13:32:10;;;;;;;32.73;18.60;;;;;;;0.16;100.00;99755.55;1451110;99;21149;-69
2021/12/05 13:34:50;;;;;;;29.97;18.80;;;;;;;0.14;100.00;99758.36;1448831;98;21121;-72
2021/12/05 13:37:33;;;;;;;30.07;18.57;;;;;;;0.09;100.00;99763.61;1430600;99;21595;-71
2021/12/05 13:40:14;;;;;;;33.83;19.98;;;;;;;0.10;100.00;99769.31;1430884;100;21098;-71
2021/12/05 13:42:48;;;;;;;34.87;19.83;;;;;;;0.08;100.00;99766.76;1430743;100;21629;-71
2021/12/05 13:45:29;;;;;;;38.93;24.90;;;;;;;0.07;100.00;99762.42;1430775;100;21106;-71
2021/12/05 13:48:05;;;;;;;41.40;26.97;;;;;;;0.03;100.00;99760.08;1430815;100;21090;-72
2021/12/05 13:50:40;;;;;;;47.13;32.40;;;;;;;-0.03;100.00;99752.08;1430611;100;21193;-71
2021/12/05 13:53:12;;;;;;;47.40;31.90;;;;;;;-0.10;100.00;99757.46;1408409;102;21555;-71
2021/12/05 13:55:53;;;;;;;44.42;29.57;;;;;;;-0.19;100.00;99741.69;1409685;102;23070;-71
2021/12/05 13:58:40;;;;;;;42.27;25.20;;;;;;;-0.24;100.00;99731.87;1415785;100;21703;-71
2021/12/05 14:01:26;;;;;;;34.20;21.37;;;;;;;-0.27;100.00;99736.06;1432698;100;21614;-70
2021/12/05 14:04:05;;;;;;;34.73;20.43;;;;;;;-0.27;100.00;99726.77;1476001;95;21124;-70
2021/12/05 14:06:52;;;;;;;34.67;21.60;;;;;;;-0.29;100.00;99736.66;1476686;97;21643;-71
2021/12/05 14:09:39;;;;;;;38.13;21.33;;;;;;;-0.31;100.00;99726.14;1476831;97;21587;-70
2021/12/05 14:12:30;;;;;;;40.63;23.67;;;;;;;-0.34;100.00;99744.10;1476706;97;21154;-70
2021/12/05 14:15:05;;;;;;;36.23;22.23;;;;;;;-0.35;100.00;99743.72;1476837;97;21184;-70
2021/12/05 14:17:37;;;;;;;39.77;21.47;;;;;;;-0.33;100.00;99741.34;1468727;98;21639;-71
2021/12/05 14:20:14;;;;;;;36.67;20.87;;;;;;;-0.35;100.00;99731.77;1480576;97;21072;-71
2021/12/05 14:22:44;;;;;;;37.80;20.47;;;;;;;-0.37;100.00;99741.66;1478414;97;21143;-70
2021/12/05 14:25:14;;;;;;;53.63;36.97;;;;;;;-0.40;100.00;99745.39;1481727;96;21144;-71
2021/12/05 14:27:54;;;;;;;60.27;40.07;;;;;;;-0.40;100.00;99741.41;1499054;96;21088;-71
2021/12/05 14:30:23;;;;;;;48.47;33.23;;;;;;;-0.43;100.00;99747.77;1501265;94;21317;-71
2021/12/05 14:32:57;;;;;;;53.10;33.60;;;;;;;-0.46;100.00;99755.10;1506501;94;21156;-70
2021/12/05 14:35:23;;;;;;;52.47;34.73;;;;;;;-0.48;100.00;99759.22;1546990;93;21034;-71
2021/12/05 14:37:51;;;;;;;49.53;31.23;;;;;;;-0.49;100.00;99762.83;1550036;93;21089;-71
2021/12/05 14:40:30;;;;;;;72.00;40.47;;;;;;;-0.51;100.00;99759.88;1550048;93;21133;-71
2021/12/05 14:42:53;;;;;;;61.20;36.03;;;;;;;-0.53;100.00;99761.80;1547140;93;21616;-71
2021/12/05 14:45:26;;;;;;;55.90;32.73;;;;;;;-0.55;100.00;99764.56;1550180;93;21138;-72
2021/12/05 14:47:55;;;;;;;49.38;30.45;;;;;;;-0.53;100.00;99769.77;1550468;93;21134;-73
2021/12/05 14:50:30;;;;;;;38.70;24.57;;;;;;;-0.51;100.00;99758.10;1567073;91;21121;-71
2021/12/05 14:53:00;;;;;;;41.03;24.97;;;;;;;-0.46;100.00;99753.78;1546460;93;21598;-70
2021/12/05 14:55:31;;;;;;;41.07;25.10;;;;;;;-0.46;100.00;99745.35;1546333;93;21112;-71
2021/12/05 14:58:04;;;;;;;39.47;22.27;;;;;;;-0.44;100.00;99745.25;1546490;93;21088;-70
2021/12/05 15:00:40;;;;;;;33.23;18.90;;;;;;;-0.42;100.00;99740.18;1546025;93;21095;-71
2021/12/05 15:03:15;;;;;;;28.93;17.00;;;;;;;-0.37;100.00;99741.66;1546546;93;21052;-70
2021/12/05 15:05:46;;;;;;;31.37;17.57;;;;;;;-0.33;100.00;99751.13;1546370;93;21107;-70
2021/12/05 15:08:17;;;;;;;27.53;15.70;;;;;;;-0.33;100.00;99757.28;1546444;93;21132;-70
2021/12/05 15:10:45;;;;;;;31.67;17.83;;;;;;;-0.31;100.00;99761.16;1546407;93;21104;-71
2021/12/05 15:13:12;;;;;;;32.93;18.33;;;;;;;-0.30;100.00;99773.47;1547641;88;21155;-71
2021/12/05 15:15:39;;;;;;;34.67;19.90;;;;;;;-0.28;100.00;99767.59;1620916;88;21093;-71
2021/12/05 15:18:10;;;;;;;36.43;20.10;;;;;;;-0.29;100.00;99768.05;1566925;92;21540;-71
2021/12/05 15:20:36;;;;;;;32.23;18.87;;;;;;;-0.28;100.00;99771.09;1552638;91;21093;-70
2021/12/05 15:23:07;;;;;;;32.10;18.67;;;;;;;-0.27;100.00;99773.27;1581934;91;21073;-70
2021/12/05 15:25:35;;;;;;;37.87;22.13;;;;;;;-0.25;100.00;99779.31;1582197;91;21106;-71
2021/12/05 15:28:02;;;;;;;31.00;18.13;;;;;;;-0.24;100.00;99792.98;1582174;91;21060;-71
2021/12/05 15:30:39;;;;;;;33.70;21.10;;;;;;;-0.23;100.00;99797.33;1595470;88;21606;-72
2021/12/05 15:33:13;;;;;;;33.73;18.57;;;;;;;-0.22;100.00;99803.02;1533369;94;21620;-71
2021/12/05 15:35:43;;;;;;;26.50;15.17;;;;;;;-0.21;100.00;99804.73;1510655;95;21203;-71
2021/12/05 15:40:47;;;;;;;26.43;14.47;;;;;;;-0.23;100.00;99818.58;1388911;103;21643;-71
2021/12/05 15:43:17;;;;;;;29.53;15.60;;;;;;;-0.25;100.00;99823.16;1388980;103;21168;-73
2021/12/05 15:45:47;;;;;;;26.77;14.70;;;;;;;-0.28;100.00;99822.91;1389266;103;21195;-71
2021/12/05 15:48:32;;;;;;;27.77;15.10;;;;;;;-0.27;100.00;99827.25;1388976;103;21145;-72
2021/12/05 15:51:01;;;;;;;44.53;26.33;;;;;;;-0.25;100.00;99832.00;1358931;103;21141;-72
2021/12/05 15:53:30;;;;;;;27.00;14.87;;;;;;;-0.22;100.00;99829.11;1359145;106;21129;-71
2021/12/05 15:56:00;;;;;;;26.57;13.97;;;;;;;-0.23;100.00;99821.23;1359084;106;21160;-72
2021/12/05 15:58:34;;;;;;;29.40;15.17;;;;;;;-0.23;100.00;99823.90;1359595;106;21577;-73
2021/12/05 16:01:05;;;;;;;31.37;17.30;;;;;;;-0.24;100.00;99825.72;1358770;106;21668;-73
2021/12/05 16:03:45;;;;;;;35.77;22.40;;;;;;;-0.26;100.00;99836.94;1359225;106;21108;-72
2021/12/05 16:06:14;;;;;;;30.57;17.43;;;;;;;-0.26;100.00;99830.29;1359140;106;21197;-71
2021/12/05 16:08:42;;;;;;;29.10;16.23;;;;;;;-0.24;100.00;99835.02;1359171;106;21700;-72
2021/12/05 16:11:15;;;;;;;27.53;15.93;;;;;;;-0.23;100.00;99835.40;1359042;106;21193;-72
2021/12/05 16:13:46;;;;;;;29.33;16.87;;;;;;;-0.24;100.00;99839.48;1359049;105;21200;-73
2021/12/05 16:16:17;;;;;;;32.10;17.10;;;;;;;-0.24;100.00;99834.17;1359385;106;21642;-71
2021/12/05 16:18:48;;;;;;;26.80;14.93;;;;;;;-0.23;100.00;99836.73;1394534;103;21640;-72
2021/12/05 16:21:22;;;;;;;26.15;14.68;;;;;;;-0.22;100.00;99828.27;1339870;106;21122;-71
2021/12/05 16:23:49;;;;;;;28.50;16.50;;;;;;;-0.21;100.00;99829.98;1338193;107;21767;-72
2021/12/05 16:26:21;;;;;;;27.47;16.13;;;;;;;-0.22;100.00;99825.61;1338050;107;21139;-71
2021/12/05 16:28:55;;;;;;;50.70;31.13;;;;;;;-0.23;100.00;99829.21;1360471;103;21168;-74
2021/12/05 16:31:29;;;;;;;58.80;38.20;;;;;;;-0.25;100.00;99817.84;1398339;101;21209;-73
2021/12/05 16:34:17;;;;;;;28.87;17.17;;;;;;;-0.22;100.00;99828.27;1412161;100;21591;-71
2021/12/05 16:36:50;;;;;;;27.80;17.13;;;;;;;-0.21;100.00;99829.49;1390213;103;21132;-71
2021/12/05 16:39:19;;;;;;;;;;;;;;;-0.21;100.00;99825.51;1396391;103;21100;-72
2021/12/05 16:41:53;;;;;;;25.60;13.77;;;;;;;-0.19;100.00;99830.72;1416472;101;20126;-72
2021/12/05 16:44:23;;;;;;;26.63;14.93;;;;;;;-0.20;100.00;99835.16;1402466;101;21089;-72
2021/12/05 16:46:55;;;;;;;31.23;16.97;;;;;;;-0.21;100.00;99832.15;1428385;100;21658;-71
2021/12/05 16:49:30;;;;;;;28.67;16.63;;;;;;;-0.21;100.00;99829.98;1407543;102;21723;-73
2021/12/05 16:52:11;;;;;;;28.40;14.97;;;;;;;-0.22;100.00;99834.91;1394516;103;21187;-72
2021/12/05 16:54:54;;;;;;;27.43;14.67;;;;;;;-0.25;100.00;99832.00;1392118;103;21589;-72
2021/12/05 16:57:30;;;;;;;25.90;14.60;;;;;;;-0.29;100.00;99829.16;1394596;103;21092;-73
2021/12/05 16:59:57;;;;;;;27.80;15.20;;;;;;;-0.30;100.00;99827.94;1394634;103;21214;-72
2021/12/05 17:02:35;;;;;;;23.93;13.63;;;;;;;-0.33;100.00;99832.16;1394559;103;21137;-73
2021/12/05 17:05:26;;;;;;;25.63;14.77;;;;;;;-0.35;100.00;99837.58;1394530;103;21130;-72
2021/12/05 17:08:08;;;;;;;25.70;14.60;;;;;;;-0.35;100.00;99838.03;1394520;103;21108;-72
2021/12/05 17:10:48;;;;;;;26.53;14.80;;;;;;;-0.37;100.00;99834.64;1394387;103;21220;-73
2021/12/05 17:13:29;;;;;;;27.57;13.90;;;;;;;-0.36;100.00;99842.51;1394513;103;21149;-72
2021/12/05 17:16:04;;;;;;;24.90;14.27;;;;;;;-0.33;100.00;99854.75;1395099;101;21112;-72
2021/12/05 17:18:42;;;;;;;25.63;13.93;;;;;;;-0.33;100.00;99858.25;1423237;100;21368;-72